createdAt,value
2017-09-01T00:01:43.588Z,15.16
2017-09-01T00:04:09.818Z,14.97
2017-09-01T00:06:36.046Z,14.93
2017-09-01T00:09:02.286Z,14.77
2017-09-01T00:11:28.505Z,14.65
2017-09-01T00:13:54.743Z,14.53
2017-09-01T00:16:20.965Z,14.52
2017-09-01T00:18:47.192Z,14.41
2017-09-01T00:21:13.421Z,14.32
2017-09-01T00:23:39.659Z,14.25
2017-09-01T00:26:05.879Z,14.24
2017-09-01T00:28:32.110Z,14.22
2017-09-01T00:30:58.345Z,14.25
2017-09-01T00:33:24.573Z,14.26
2017-09-01T00:35:50.807Z,14.12
2017-09-01T00:38:17.031Z,14.14
2017-09-01T00:40:43.265Z,14.11
2017-09-01T00:43:09.488Z,14.10
2017-09-01T00:45:35.732Z,14.01
2017-09-01T00:48:01.972Z,14.02
2017-09-01T00:50:28.189Z,14.03
2017-09-01T00:52:54.417Z,14.04
2017-09-01T00:55:20.637Z,14.04
2017-09-01T00:57:46.865Z,14.03
2017-09-01T01:00:13.107Z,13.94
2017-09-01T01:02:39.325Z,13.83
2017-09-01T01:05:05.562Z,13.81
2017-09-01T01:07:31.795Z,13.71
2017-09-01T01:09:58.026Z,13.74
2017-09-01T01:12:24.243Z,13.81
2017-09-01T01:14:50.472Z,13.78
2017-09-01T01:17:16.692Z,13.69
2017-09-01T01:19:42.943Z,13.69
2017-09-01T01:22:09.162Z,13.61
2017-09-01T01:24:35.377Z,13.55
2017-09-01T01:27:01.629Z,13.63
2017-09-01T01:29:27.849Z,13.60
2017-09-01T01:31:54.096Z,13.52
2017-09-01T01:34:20.318Z,13.51
2017-09-01T01:36:46.544Z,13.45
2017-09-01T01:39:12.772Z,13.50
2017-09-01T01:41:39.011Z,13.55
2017-09-01T01:44:05.234Z,13.53
2017-09-01T01:46:31.465Z,13.52
2017-09-01T01:48:57.686Z,13.53
2017-09-01T01:51:23.923Z,13.47
2017-09-01T01:53:50.131Z,13.43
2017-09-01T01:56:16.382Z,13.38
2017-09-01T01:58:42.602Z,13.28
2017-09-01T02:01:08.845Z,13.23
2017-09-01T02:03:35.070Z,13.15
2017-09-01T02:06:01.285Z,13.12
2017-09-01T02:08:27.510Z,13.08
2017-09-01T02:10:53.745Z,13.04
2017-09-01T02:13:19.975Z,12.85
2017-09-01T02:15:46.217Z,12.84
2017-09-01T02:18:12.462Z,12.96
2017-09-01T02:20:38.658Z,13.00
2017-09-01T02:23:04.918Z,13.12
2017-09-01T02:25:31.141Z,12.97
2017-09-01T02:27:57.368Z,13.04
2017-09-01T02:30:23.598Z,12.98
2017-09-01T02:32:49.814Z,13.02
2017-09-01T02:35:16.052Z,13.00
2017-09-01T02:37:42.279Z,13.01
2017-09-01T02:40:08.500Z,12.99
2017-09-01T02:42:34.726Z,12.97
2017-09-01T02:45:00.958Z,12.86
2017-09-01T02:47:27.190Z,12.86
2017-09-01T02:49:53.418Z,12.84
2017-09-01T02:52:19.654Z,12.83
2017-09-01T02:54:45.867Z,12.77
2017-09-01T02:57:12.111Z,12.74
2017-09-01T02:59:38.353Z,12.66
2017-09-01T03:02:04.585Z,12.71
2017-09-01T03:04:30.807Z,12.61
2017-09-01T03:06:57.025Z,12.62
2017-09-01T03:09:23.271Z,12.56
2017-09-01T03:11:49.501Z,12.48
2017-09-01T03:14:15.745Z,12.40
2017-09-01T03:16:41.953Z,12.39
2017-09-01T03:19:08.204Z,12.28
2017-09-01T03:21:34.398Z,12.28
2017-09-01T03:24:00.645Z,12.25
2017-09-01T03:26:26.878Z,12.62
2017-09-01T03:28:53.108Z,12.48
2017-09-01T03:31:19.317Z,12.51
2017-09-01T03:33:45.552Z,12.51
2017-09-01T03:36:11.780Z,12.49
2017-09-01T03:38:38.019Z,12.48
2017-09-01T03:41:04.193Z,12.36
2017-09-01T03:43:30.370Z,12.28
2017-09-01T03:45:56.619Z,12.31
2017-09-01T03:48:22.839Z,12.39
2017-09-01T03:50:49.077Z,12.38
2017-09-01T03:53:15.304Z,12.36
2017-09-01T03:55:41.539Z,12.35
2017-09-01T03:58:07.757Z,12.33
2017-09-01T04:00:33.995Z,12.37
2017-09-01T04:03:00.211Z,12.41
2017-09-01T04:05:26.449Z,12.45
2017-09-01T04:07:52.666Z,12.47
2017-09-01T04:10:18.898Z,12.49
2017-09-01T04:12:45.129Z,12.49
2017-09-01T04:15:11.376Z,12.52
2017-09-01T04:17:37.616Z,12.54
2017-09-01T04:20:03.827Z,12.57
2017-09-01T04:22:30.051Z,12.64
2017-09-01T04:24:56.314Z,12.68
2017-09-01T04:27:22.521Z,12.88
2017-09-01T04:29:48.750Z,13.10
2017-09-01T04:32:14.993Z,13.89
2017-09-01T04:34:41.187Z,14.91
2017-09-01T04:37:07.433Z,15.71
2017-09-01T04:39:33.658Z,16.50
2017-09-01T04:41:59.897Z,17.01
2017-09-01T04:44:26.107Z,17.90
2017-09-01T04:46:52.352Z,18.72
2017-09-01T04:49:18.618Z,19.79
2017-09-01T04:51:44.824Z,20.66
2017-09-01T04:54:11.039Z,20.80
2017-09-01T04:56:37.253Z,20.22
2017-09-01T04:59:03.501Z,18.94
2017-09-01T05:01:29.727Z,18.86
2017-09-01T05:03:55.960Z,18.10
2017-09-01T05:06:22.126Z,18.74
2017-09-01T05:08:48.310Z,18.86
2017-09-01T05:11:14.540Z,20.00
2017-09-01T05:13:40.777Z,20.58
2017-09-01T05:16:07.049Z,20.93
2017-09-01T05:18:33.251Z,21.76
2017-09-01T05:20:59.473Z,22.62
2017-09-01T05:23:25.719Z,22.35
2017-09-01T05:25:51.994Z,23.16
2017-09-01T05:28:18.262Z,23.65
2017-09-01T05:30:44.482Z,23.58
2017-09-01T05:33:10.717Z,24.00
2017-09-01T05:35:36.879Z,24.52
2017-09-01T05:38:03.084Z,24.56
2017-09-01T05:40:29.300Z,24.96
2017-09-01T05:42:55.536Z,25.95
2017-09-01T05:45:21.813Z,26.76
2017-09-01T05:47:48.100Z,25.55
2017-09-01T05:50:14.311Z,24.76
2017-09-01T05:52:40.558Z,24.32
2017-09-01T05:55:06.776Z,24.18
2017-09-01T05:57:33.042Z,23.71
2017-09-01T05:59:59.264Z,23.54
2017-09-01T06:02:25.470Z,23.98
2017-09-01T06:04:51.702Z,24.23
2017-09-01T06:07:17.931Z,24.96
2017-09-01T06:09:44.158Z,25.35
2017-09-01T06:12:10.390Z,25.02
2017-09-01T06:14:37.014Z,25.93
2017-09-01T06:17:03.260Z,26.26
2017-09-01T06:19:29.431Z,26.01
2017-09-01T06:21:55.604Z,25.60
2017-09-01T06:24:21.857Z,26.04
2017-09-01T06:26:48.080Z,26.91
2017-09-01T06:29:14.301Z,26.98
2017-09-01T06:31:40.557Z,27.15
2017-09-01T06:34:06.776Z,26.88
2017-09-01T06:36:32.997Z,26.97
2017-09-01T06:38:59.234Z,26.97
2017-09-01T06:41:25.468Z,27.32
2017-09-01T06:43:51.654Z,27.30
2017-09-01T06:46:17.823Z,27.25
2017-09-01T06:48:44.002Z,26.55
2017-09-01T06:51:10.165Z,26.71
2017-09-01T06:53:36.341Z,27.55
2017-09-01T06:56:02.504Z,27.47
2017-09-01T06:58:28.697Z,27.95
2017-09-01T07:00:54.856Z,27.87
2017-09-01T07:03:21.015Z,27.76
2017-09-01T07:05:47.191Z,28.47
2017-09-01T07:08:13.390Z,28.35
2017-09-01T07:10:39.544Z,28.36
2017-09-01T07:13:05.711Z,28.14
2017-09-01T07:15:31.884Z,28.03
2017-09-01T07:17:58.043Z,28.77
2017-09-01T07:20:24.215Z,28.99
2017-09-01T07:22:50.390Z,29.53
2017-09-01T07:25:16.568Z,29.72
2017-09-01T07:27:42.726Z,29.29
2017-09-01T07:30:08.886Z,30.13
2017-09-01T07:32:35.048Z,30.43
2017-09-01T07:35:01.222Z,30.76
2017-09-01T07:37:27.395Z,30.92
2017-09-01T07:39:53.539Z,30.58
2017-09-01T07:42:19.752Z,31.00
2017-09-01T07:44:45.932Z,30.56
2017-09-01T07:47:12.092Z,30.14
2017-09-01T07:49:38.241Z,30.76
2017-09-01T07:52:04.415Z,30.98
2017-09-01T07:54:30.572Z,31.36
2017-09-01T07:56:56.726Z,32.22
2017-09-01T07:59:22.898Z,32.56
2017-09-01T08:01:49.075Z,33.00
2017-09-01T08:04:15.252Z,32.94
2017-09-01T08:06:41.422Z,33.36
2017-09-01T08:09:07.600Z,33.01
2017-09-01T08:11:33.762Z,32.93
2017-09-01T08:13:59.930Z,32.67
2017-09-01T08:16:26.108Z,32.81
2017-09-01T08:18:52.270Z,33.19
2017-09-01T08:21:18.434Z,33.48
2017-09-01T08:23:44.587Z,33.24
2017-09-01T08:26:10.749Z,34.09
2017-09-01T08:28:36.925Z,34.16
2017-09-01T08:31:03.114Z,34.74
2017-09-01T08:33:29.279Z,34.99
2017-09-01T08:35:55.453Z,34.82
2017-09-01T08:38:21.628Z,34.99
2017-09-01T08:40:47.793Z,35.06
2017-09-01T08:43:13.956Z,34.98
2017-09-01T08:45:40.100Z,35.12
2017-09-01T08:48:06.271Z,35.61
2017-09-01T08:50:32.443Z,35.43
2017-09-01T08:52:58.608Z,35.82
2017-09-01T08:55:24.787Z,36.17
2017-09-01T08:57:50.968Z,36.04
2017-09-01T09:00:17.136Z,35.49
2017-09-01T09:02:43.304Z,35.05
2017-09-01T09:05:09.490Z,35.34
2017-09-01T09:07:35.670Z,34.94
2017-09-01T09:10:01.851Z,35.11
2017-09-01T09:12:28.022Z,34.94
2017-09-01T09:14:54.201Z,35.16
2017-09-01T09:17:20.369Z,34.75
2017-09-01T09:19:46.527Z,34.56
2017-09-01T09:22:12.680Z,33.82
2017-09-01T09:24:38.857Z,34.75
2017-09-01T09:27:05.035Z,34.97
2017-09-01T09:29:31.202Z,34.91
2017-09-01T09:31:57.377Z,35.56
2017-09-01T09:34:23.547Z,35.43
2017-09-01T09:36:49.717Z,35.77
2017-09-01T09:39:15.892Z,36.58
2017-09-01T09:41:42.076Z,36.58
2017-09-01T09:44:08.269Z,36.65
2017-09-01T09:46:34.438Z,36.48
2017-09-01T09:49:00.604Z,36.51
2017-09-01T09:51:26.768Z,36.11
2017-09-01T09:53:52.962Z,37.11
2017-09-01T09:56:19.150Z,35.94
2017-09-01T09:58:45.304Z,36.09
2017-09-01T10:01:11.474Z,36.46
2017-09-01T10:03:37.645Z,35.77
2017-09-01T10:06:03.805Z,36.29
2017-09-01T10:08:29.999Z,36.09
2017-09-01T10:10:56.182Z,37.31
2017-09-01T10:13:22.370Z,37.00
2017-09-01T10:15:48.540Z,37.12
2017-09-01T10:18:14.727Z,37.01
2017-09-01T10:20:40.903Z,36.96
2017-09-01T10:23:07.081Z,37.38
2017-09-01T10:25:33.252Z,37.21
2017-09-01T10:27:59.420Z,37.73
2017-09-01T10:30:25.605Z,38.00
2017-09-01T10:32:51.788Z,37.87
2017-09-01T10:35:17.987Z,37.84
2017-09-01T10:37:44.171Z,37.93
2017-09-01T10:40:10.325Z,37.71
2017-09-01T10:42:36.474Z,37.27
2017-09-01T10:45:02.632Z,37.51
2017-09-01T10:47:28.806Z,38.15
2017-09-01T10:49:54.999Z,38.05
2017-09-01T10:52:21.173Z,38.67
2017-09-01T10:54:47.350Z,39.10
2017-09-01T10:57:13.551Z,39.18
2017-09-01T10:59:39.736Z,38.88
2017-09-01T11:02:05.919Z,39.01
2017-09-01T11:04:32.108Z,38.42
2017-09-01T11:06:58.287Z,37.96
2017-09-01T11:09:24.446Z,37.68
2017-09-01T11:11:50.621Z,38.56
2017-09-01T11:14:16.807Z,37.78
2017-09-01T11:16:42.984Z,37.68
2017-09-01T11:19:09.143Z,37.84
2017-09-01T11:21:35.305Z,37.41
2017-09-01T11:24:01.487Z,37.43
2017-09-01T11:26:27.664Z,37.18
2017-09-01T11:28:53.851Z,37.22
2017-09-01T11:31:20.033Z,36.87
2017-09-01T11:33:46.208Z,36.82
2017-09-01T11:36:12.357Z,37.21
2017-09-01T11:38:38.527Z,37.88
2017-09-01T11:41:04.700Z,37.94
2017-09-01T11:43:30.865Z,38.29
2017-09-01T11:45:57.057Z,38.22
2017-09-01T11:48:23.246Z,38.89
2017-09-01T11:50:49.408Z,39.08
2017-09-01T11:53:15.573Z,39.81
2017-09-01T11:55:41.747Z,39.69
2017-09-01T11:58:07.908Z,39.33
2017-09-01T12:00:34.069Z,39.45
2017-09-01T12:03:00.216Z,39.22
2017-09-01T12:05:26.380Z,39.09
2017-09-01T12:07:52.536Z,39.47
2017-09-01T12:10:18.732Z,39.65
2017-09-01T12:12:44.896Z,39.73
2017-09-01T12:15:11.076Z,39.69
2017-09-01T12:17:37.255Z,38.49
2017-09-01T12:20:03.405Z,38.99
2017-09-01T12:22:29.563Z,37.96
2017-09-01T12:24:55.769Z,37.65
2017-09-01T12:27:21.946Z,38.92
2017-09-01T12:29:48.113Z,39.36
2017-09-01T12:32:14.282Z,39.48
2017-09-01T12:34:40.476Z,39.35
2017-09-01T12:37:06.638Z,39.73
2017-09-01T12:39:32.817Z,39.81
2017-09-01T12:41:58.968Z,38.50
2017-09-01T12:44:25.132Z,39.05
2017-09-01T12:46:51.306Z,39.12
2017-09-01T12:49:17.467Z,39.97
2017-09-01T12:51:45.207Z,40.71
2017-09-01T12:54:11.374Z,41.64
2017-09-01T12:56:37.531Z,42.03
2017-09-01T12:59:03.702Z,40.25
2017-09-01T13:01:29.869Z,39.87
2017-09-01T13:03:56.031Z,40.36
2017-09-01T13:06:22.196Z,40.40
2017-09-01T13:08:48.352Z,39.52
2017-09-01T13:11:14.495Z,39.96
2017-09-01T13:13:40.663Z,39.70
2017-09-01T13:16:06.834Z,40.01
2017-09-01T13:18:32.998Z,40.67
2017-09-01T13:20:59.327Z,40.31
2017-09-01T13:23:25.487Z,39.15
2017-09-01T13:25:51.650Z,38.33
2017-09-01T13:28:17.813Z,39.13
2017-09-01T13:30:43.976Z,38.46
2017-09-01T13:33:10.148Z,39.23
2017-09-01T13:35:36.323Z,40.50
2017-09-01T13:38:02.493Z,40.93
2017-09-01T13:40:28.655Z,41.44
2017-09-01T13:42:54.831Z,40.26
2017-09-01T13:45:20.985Z,40.18
2017-09-01T13:47:47.151Z,41.09
2017-09-01T13:50:13.306Z,41.44
2017-09-01T13:52:39.474Z,40.54
2017-09-01T13:55:05.633Z,40.44
2017-09-01T13:57:31.800Z,40.93
2017-09-01T13:59:57.954Z,40.68
2017-09-01T14:02:24.116Z,40.61
2017-09-01T14:04:50.292Z,41.35
2017-09-01T14:07:16.465Z,41.65
2017-09-01T14:09:42.651Z,41.33
2017-09-01T14:12:08.820Z,40.56
2017-09-01T14:14:34.994Z,40.93
2017-09-01T14:17:05.134Z,40.15
2017-09-01T14:19:31.301Z,41.09
2017-09-01T14:21:57.459Z,41.48
2017-09-01T14:24:23.635Z,40.99
2017-09-01T14:26:49.811Z,41.61
2017-09-01T14:29:15.982Z,40.79
2017-09-01T14:31:42.139Z,40.28
2017-09-01T14:34:08.312Z,40.39
2017-09-01T14:36:34.480Z,40.31
2017-09-01T14:39:00.646Z,40.95
2017-09-01T14:41:26.804Z,40.45
2017-09-01T14:43:52.956Z,40.90
2017-09-01T14:46:19.105Z,41.89
2017-09-01T14:48:45.283Z,42.93
2017-09-01T14:51:11.441Z,41.74
2017-09-01T14:53:37.608Z,41.68
2017-09-01T14:56:03.781Z,40.35
2017-09-01T14:58:29.949Z,40.30
2017-09-01T15:00:56.118Z,39.88
2017-09-01T15:03:22.315Z,40.05
2017-09-01T15:05:48.484Z,39.46
2017-09-01T15:08:14.639Z,39.66
2017-09-01T15:10:40.815Z,39.20
2017-09-01T15:13:06.994Z,38.90
2017-09-01T15:15:33.179Z,38.68
2017-09-01T15:17:59.358Z,38.93
2017-09-01T15:20:25.568Z,39.06
2017-09-01T15:22:51.728Z,39.94
2017-09-01T15:25:17.907Z,38.50
2017-09-01T15:27:44.075Z,38.05
2017-09-01T15:30:10.240Z,37.99
2017-09-01T15:32:36.421Z,38.93
2017-09-01T15:35:02.589Z,39.00
2017-09-01T15:37:28.757Z,38.38
2017-09-01T15:39:54.934Z,38.45
2017-09-01T15:42:21.110Z,39.22
2017-09-01T15:44:47.287Z,38.91
2017-09-01T15:47:13.440Z,38.75
2017-09-01T15:49:39.605Z,38.63
2017-09-01T15:52:05.765Z,38.17
2017-09-01T15:54:31.929Z,37.93
2017-09-01T15:56:58.106Z,37.46
2017-09-01T15:59:24.268Z,37.19
2017-09-01T16:01:50.426Z,36.63
2017-09-01T16:04:16.573Z,36.07
2017-09-01T16:06:42.735Z,35.72
2017-09-01T16:09:08.904Z,35.41
2017-09-01T16:11:35.094Z,35.61
2017-09-01T16:14:01.277Z,35.57
2017-09-01T16:16:27.452Z,35.65
2017-09-01T16:18:53.627Z,35.20
2017-09-01T16:21:19.806Z,34.75
2017-09-01T16:23:45.992Z,34.48
2017-09-01T16:26:12.163Z,34.25
2017-09-01T16:28:38.395Z,33.87
2017-09-01T16:31:04.544Z,33.53
2017-09-01T16:33:30.705Z,33.09
2017-09-01T16:35:56.884Z,32.66
2017-09-01T16:38:23.049Z,32.00
2017-09-01T16:40:49.238Z,31.23
2017-09-01T16:43:15.398Z,30.69
2017-09-01T16:45:41.561Z,30.27
2017-09-01T16:48:07.740Z,29.95
2017-09-01T16:50:33.915Z,29.63
2017-09-01T16:53:00.072Z,29.28
2017-09-01T16:55:26.306Z,29.02
2017-09-01T16:57:52.490Z,28.64
2017-09-01T17:00:18.650Z,28.39
2017-09-01T17:02:44.827Z,28.20
2017-09-01T17:05:10.996Z,27.76
2017-09-01T17:07:37.167Z,27.48
2017-09-01T17:10:03.319Z,27.15
2017-09-01T17:12:29.510Z,26.94
2017-09-01T17:14:55.662Z,26.80
2017-09-01T17:17:21.854Z,26.54
2017-09-01T17:19:48.130Z,26.42
2017-09-01T17:22:14.338Z,26.22
2017-09-01T17:24:40.513Z,26.13
2017-09-01T17:27:06.682Z,25.99
2017-09-01T17:29:32.847Z,25.90
2017-09-01T17:31:58.997Z,25.84
2017-09-01T17:34:25.165Z,25.72
2017-09-01T17:36:51.349Z,25.56
2017-09-01T17:39:17.518Z,25.52
2017-09-01T17:41:43.683Z,25.46
2017-09-01T17:44:09.837Z,25.32
2017-09-01T17:46:36.004Z,25.23
2017-09-01T17:49:02.174Z,25.25
2017-09-01T17:51:28.336Z,25.04
2017-09-01T17:53:54.500Z,24.88
2017-09-01T17:56:20.659Z,24.85
2017-09-01T17:58:46.822Z,24.68
2017-09-01T18:01:12.981Z,24.52
2017-09-01T18:03:39.132Z,24.47
2017-09-01T18:06:05.303Z,24.45
2017-09-01T18:08:31.453Z,24.33
2017-09-01T18:10:57.610Z,24.23
2017-09-01T18:13:23.766Z,24.11
2017-09-01T18:15:49.969Z,24.01
2017-09-01T18:18:16.129Z,23.96
2017-09-01T18:20:42.301Z,23.84
2017-09-01T18:23:08.442Z,23.76
2017-09-01T18:25:34.609Z,23.73
2017-09-01T18:28:00.769Z,23.66
2017-09-01T18:30:26.928Z,23.54
2017-09-01T18:32:53.100Z,23.38
2017-09-01T18:35:19.248Z,23.29
2017-09-01T18:37:45.414Z,23.19
2017-09-01T18:40:11.584Z,23.15
2017-09-01T18:42:37.742Z,23.14
2017-09-01T18:45:03.913Z,23.03
2017-09-01T18:47:30.100Z,22.96
2017-09-01T18:49:56.267Z,22.94
2017-09-01T18:52:22.446Z,22.83
2017-09-01T18:54:48.615Z,22.80
2017-09-01T18:57:14.782Z,22.79
2017-09-01T18:59:40.946Z,22.69
2017-09-01T19:02:07.129Z,22.67
2017-09-01T19:04:33.313Z,22.62
2017-09-01T19:06:59.480Z,22.59
2017-09-01T19:09:25.654Z,22.50
2017-09-01T19:11:51.835Z,22.46
2017-09-01T19:14:18.000Z,22.38
2017-09-01T19:16:44.257Z,22.36
2017-09-01T19:19:10.428Z,22.32
2017-09-01T19:21:36.607Z,22.28
2017-09-01T19:24:02.776Z,22.43
2017-09-01T19:26:28.953Z,22.31
2017-09-01T19:28:55.120Z,22.23
2017-09-01T19:31:21.295Z,22.20
2017-09-01T19:33:47.470Z,21.74
2017-09-01T19:36:13.648Z,21.86
2017-09-01T19:38:39.822Z,21.80
2017-09-01T19:41:05.998Z,21.68
2017-09-01T19:43:32.145Z,21.69
2017-09-01T19:45:58.299Z,21.70
2017-09-01T19:48:24.483Z,21.56
2017-09-01T19:50:50.634Z,21.51
2017-09-01T19:53:16.815Z,21.44
2017-09-01T19:55:42.977Z,21.37
2017-09-01T19:58:09.136Z,21.29
2017-09-01T20:00:35.297Z,21.20
2017-09-01T20:03:01.457Z,21.14
2017-09-01T20:05:27.617Z,21.13
2017-09-01T20:07:53.799Z,21.15
2017-09-01T20:10:19.970Z,21.04
2017-09-01T20:12:46.133Z,20.93
2017-09-01T20:15:12.279Z,20.79
2017-09-01T20:17:38.447Z,20.83
2017-09-01T20:20:04.615Z,20.80
2017-09-01T20:22:30.771Z,20.75
2017-09-01T20:24:56.930Z,20.68
2017-09-01T20:27:23.088Z,20.39
2017-09-01T20:29:49.247Z,20.28
2017-09-01T20:32:15.423Z,20.19
2017-09-01T20:34:41.589Z,20.10
2017-09-01T20:37:07.763Z,20.00
2017-09-01T20:55:48.924Z,18.87
2017-09-01T20:58:15.087Z,18.84
2017-09-01T21:00:41.238Z,18.85
2017-09-01T21:03:07.401Z,18.86
2017-09-01T21:05:33.586Z,18.97
2017-09-01T21:07:59.868Z,18.95
2017-09-01T21:10:26.086Z,18.98
2017-09-01T21:12:52.315Z,18.94
2017-09-01T21:15:18.532Z,18.91
2017-09-01T21:17:44.776Z,18.90
2017-09-01T21:20:10.996Z,18.85
2017-09-01T21:22:37.235Z,18.72
2017-09-01T21:25:03.467Z,18.61
2017-09-01T21:27:29.678Z,18.57
2017-09-01T21:29:55.911Z,18.50
2017-09-01T21:32:22.070Z,18.30
2017-09-01T21:34:48.258Z,18.12
2017-09-01T21:39:40.434Z,18.19
2017-09-01T21:42:06.657Z,18.20
2017-09-01T21:44:32.948Z,18.18
2017-09-01T21:46:59.225Z,18.22
2017-09-01T21:49:25.397Z,18.16
2017-09-01T21:51:51.569Z,18.27
2017-09-01T21:54:17.800Z,18.24
2017-09-01T21:56:43.973Z,18.17
2017-09-01T21:59:10.161Z,17.99
2017-09-01T22:01:36.383Z,17.95
2017-09-01T22:04:02.548Z,17.85
2017-09-01T22:06:28.750Z,17.94
2017-09-01T22:08:54.925Z,17.97
2017-09-01T22:11:21.211Z,17.92
2017-09-01T22:13:47.424Z,17.86
2017-09-01T22:16:13.657Z,17.84
2017-09-01T22:18:39.897Z,17.85
2017-09-01T22:21:06.127Z,17.69
2017-09-01T22:23:32.354Z,17.65
2017-09-01T22:25:58.584Z,17.64
2017-09-01T22:28:24.815Z,17.60
2017-09-01T22:30:51.054Z,17.55
2017-09-01T22:33:17.279Z,17.55
2017-09-01T22:35:43.509Z,17.50
2017-09-01T22:38:09.729Z,17.49
2017-09-01T22:40:35.962Z,17.45
2017-09-01T22:43:02.195Z,17.43
2017-09-01T22:45:28.418Z,17.34
2017-09-01T22:47:54.653Z,17.26
2017-09-01T22:50:20.884Z,17.38
2017-09-01T22:52:47.117Z,17.40
2017-09-01T22:55:13.364Z,17.45
2017-09-01T22:57:39.583Z,17.45
2017-09-01T23:00:05.807Z,17.49
2017-09-01T23:02:32.039Z,17.30
2017-09-01T23:04:58.275Z,17.20
2017-09-01T23:15:25.816Z,16.43
2017-09-01T23:17:52.062Z,16.45
2017-09-01T23:20:18.411Z,16.46
2017-09-01T23:22:44.745Z,16.45
2017-09-01T23:25:11.097Z,16.49
2017-09-01T23:27:37.409Z,16.49
2017-09-01T23:30:03.730Z,16.47
2017-09-01T23:32:30.060Z,16.52
2017-09-01T23:34:56.433Z,16.54
2017-09-01T23:37:22.740Z,16.52
2017-09-01T23:39:48.998Z,16.47
2017-09-01T23:42:15.305Z,16.48
2017-09-01T23:44:41.620Z,16.42
2017-09-01T23:47:07.971Z,16.44
2017-09-01T23:49:34.284Z,16.40
2017-09-01T23:52:00.627Z,16.35
2017-09-01T23:54:26.860Z,16.34
2017-09-01T23:56:53.222Z,16.27
2017-09-01T23:59:19.514Z,16.34
